Costigan, Maine
Current Conditions -  °F | °C
As of 8:53 PM on Friday 21 Nov 2014 (Local Time) from KBGR Reporting Station
Clear Clear  
Wind Chill: 11°   Ceiling: Unl
Heat Index: 21°   Visibility: 10mi
Dew Point:   Wind: 8mph
Humidity: 55%   Direction: 290°WNW
Pressure: 30.24"   Gusts: NA
Location:  45.01°N, 68.64°W
Report Text: KBGR 220153Z 29007KT 10SM CLR M06/M14 A3024 RMK AO2 SLP245 T10611139
Loading
Personal Weather Stations






























Interactive Weather Map New forecast layout! Learn more

10-Day Weather Forecast

Advertisements
Track Severe Weather on mobile